createdAt,value
2022-10-12T00:00:54.777Z,8.40
2022-10-12T00:03:23.134Z,8.40
2022-10-12T00:06:01.483Z,8.40
2022-10-12T00:08:29.732Z,8.40
2022-10-12T00:10:59.802Z,8.40
2022-10-12T00:13:28.453Z,8.40
2022-10-12T00:15:56.679Z,8.40
2022-10-12T00:18:24.891Z,8.40
2022-10-12T00:21:01.476Z,8.40
2022-10-12T00:23:30.385Z,8.40
2022-10-12T00:26:02.335Z,8.40
2022-10-12T00:28:30.885Z,8.30
2022-10-12T00:30:59.258Z,8.30
2022-10-12T00:33:28.921Z,8.30
2022-10-12T00:35:57.506Z,8.30
2022-10-12T00:38:25.881Z,8.30
2022-10-12T00:40:54.161Z,8.20
2022-10-12T00:43:34.353Z,8.20
2022-10-12T00:46:05.151Z,8.10
2022-10-12T00:48:33.411Z,8.00
2022-10-12T00:51:02.822Z,8.00
2022-10-12T00:53:34.172Z,8.00
2022-10-12T00:56:04.275Z,8.10
2022-10-12T00:58:34.675Z,8.10
2022-10-12T01:01:03.102Z,8.10
2022-10-12T01:03:33.386Z,8.10
2022-10-12T01:06:01.814Z,8.10
2022-10-12T01:08:30.223Z,8.00
2022-10-12T01:10:59.011Z,8.00
2022-10-12T01:13:27.494Z,8.00
2022-10-12T01:16:00.864Z,8.00
2022-10-12T01:18:32.664Z,8.00
2022-10-12T01:21:09.653Z,7.90
2022-10-12T01:23:50.254Z,7.90
2022-10-12T01:26:28.473Z,7.90
2022-10-12T01:29:00.254Z,8.00
2022-10-12T01:31:32.945Z,7.90
2022-10-12T01:34:04.121Z,7.90
2022-10-12T01:36:34.674Z,7.90
2022-10-12T01:39:06.404Z,7.90
2022-10-12T01:41:39.035Z,7.90
2022-10-12T01:44:07.715Z,7.80
2022-10-12T01:46:47.549Z,7.80
2022-10-12T01:49:18.116Z,7.90
2022-10-12T01:52:07.294Z,7.80
2022-10-12T01:54:43.718Z,7.80
2022-10-12T01:57:17.455Z,7.90
2022-10-12T01:59:51.904Z,7.80
2022-10-12T02:02:24.984Z,7.70
2022-10-12T02:04:53.993Z,7.70
2022-10-12T02:07:26.476Z,7.70
2022-10-12T02:09:57.025Z,7.70
2022-10-12T02:12:26.334Z,7.70
2022-10-12T02:14:57.793Z,7.70
2022-10-12T02:17:27.814Z,7.70
2022-10-12T02:19:57.104Z,7.70
2022-10-12T02:22:26.840Z,7.70
2022-10-12T02:24:58.054Z,7.60
2022-10-12T02:27:27.922Z,7.60
2022-10-12T02:29:56.913Z,7.60
2022-10-12T02:32:30.154Z,7.60
2022-10-12T02:34:59.884Z,7.60
2022-10-12T02:37:33.015Z,7.60
2022-10-12T02:40:04.595Z,7.60
2022-10-12T02:42:46.490Z,7.50
2022-10-12T02:45:25.254Z,7.60
2022-10-12T02:47:56.224Z,7.60
2022-10-12T02:50:25.263Z,7.60
2022-10-12T02:52:54.164Z,7.50
2022-10-12T02:55:22.545Z,7.50
2022-10-12T02:57:50.775Z,7.40
2022-10-12T03:00:19.519Z,7.50
2022-10-12T03:02:47.814Z,7.40
2022-10-12T03:05:17.434Z,7.60
2022-10-12T03:07:45.603Z,7.40
2022-10-12T03:10:13.813Z,7.40
2022-10-12T03:12:44.426Z,7.30
2022-10-12T03:15:16.041Z,7.20
2022-10-12T03:17:44.274Z,7.10
2022-10-12T03:20:12.914Z,7.10
2022-10-12T03:22:42.674Z,7.10
2022-10-12T03:25:10.907Z,7.10
2022-10-12T03:27:39.621Z,7.00
2022-10-12T03:30:09.264Z,7.20
2022-10-12T03:32:39.083Z,7.20
2022-10-12T03:35:07.815Z,7.20
2022-10-12T03:37:36.588Z,7.10
2022-10-12T03:40:07.085Z,7.10
2022-10-12T03:42:35.556Z,7.10
2022-10-12T03:45:03.846Z,7.10
2022-10-12T03:47:32.066Z,7.00
2022-10-12T03:50:00.368Z,7.00
2022-10-12T03:52:28.693Z,7.00
2022-10-12T03:54:57.634Z,7.00
2022-10-12T03:57:27.312Z,6.80
2022-10-12T03:59:55.552Z,6.80
2022-10-12T04:02:23.802Z,6.90
2022-10-12T04:04:52.032Z,6.80
2022-10-12T04:07:20.262Z,6.80
2022-10-12T04:09:48.498Z,6.90
2022-10-12T04:12:16.812Z,6.90
2022-10-12T04:14:46.442Z,6.90
2022-10-12T04:17:16.483Z,6.90
2022-10-12T04:19:44.711Z,6.80
2022-10-12T04:22:13.247Z,6.60
2022-10-12T04:24:41.431Z,6.70
2022-10-12T04:27:09.602Z,6.60
2022-10-12T04:29:41.091Z,6.60
2022-10-12T04:32:12.737Z,6.60
2022-10-12T04:34:41.393Z,6.60
2022-10-12T04:37:09.655Z,6.60
2022-10-12T04:39:37.901Z,6.60
2022-10-12T04:42:07.091Z,6.70
2022-10-12T04:44:35.303Z,6.70
2022-10-12T04:47:03.559Z,6.60
2022-10-12T04:49:33.403Z,6.60
2022-10-12T04:52:02.952Z,6.60
2022-10-12T04:54:32.981Z,6.60
2022-10-12T04:57:01.252Z,6.60
2022-10-12T04:59:29.474Z,6.50
2022-10-12T05:01:57.794Z,6.50
2022-10-12T05:04:26.129Z,6.60
2022-10-12T05:06:55.842Z,6.60
2022-10-12T05:09:24.133Z,6.60
2022-10-12T05:11:52.292Z,6.60
2022-10-12T05:14:20.539Z,6.60
2022-10-12T05:16:48.784Z,6.60
2022-10-12T05:19:16.982Z,6.60
2022-10-12T05:21:45.334Z,6.60
2022-10-12T05:24:15.102Z,6.60
2022-10-12T05:26:43.383Z,6.60
2022-10-12T05:29:11.568Z,6.60
2022-10-12T05:31:40.073Z,6.60
2022-10-12T05:34:08.342Z,6.50
2022-10-12T05:36:36.542Z,6.60
2022-10-12T05:39:05.211Z,6.50
2022-10-12T05:41:34.882Z,6.50
2022-10-12T05:44:03.443Z,6.50
2022-10-12T05:46:31.722Z,6.60
2022-10-12T05:48:59.999Z,6.60
2022-10-12T05:51:29.193Z,6.70
2022-10-12T05:53:57.534Z,6.70
2022-10-12T05:56:26.311Z,6.70
2022-10-12T05:58:55.992Z,6.70
2022-10-12T06:01:30.361Z,6.70
2022-10-12T06:03:59.041Z,6.80
2022-10-12T06:06:27.271Z,6.80
2022-10-12T06:08:55.632Z,6.90
2022-10-12T06:11:23.881Z,7.00
2022-10-12T06:13:52.083Z,7.00
2022-10-12T06:16:22.020Z,7.10
2022-10-12T06:18:51.941Z,7.10
2022-10-12T06:21:35.382Z,7.20
2022-10-12T06:24:03.641Z,7.20
2022-10-12T06:26:31.852Z,7.20
2022-10-12T06:29:01.027Z,7.20
2022-10-12T06:31:30.711Z,7.30
2022-10-12T06:33:59.572Z,7.40
2022-10-12T06:36:28.053Z,7.40
2022-10-12T06:38:56.412Z,7.50
2022-10-12T06:41:24.622Z,7.50
2022-10-12T06:43:52.913Z,7.50
2022-10-12T06:46:21.546Z,7.60
2022-10-12T06:48:51.152Z,7.60
2022-10-12T06:51:19.333Z,7.70
2022-10-12T06:53:47.702Z,7.70
2022-10-12T06:56:15.863Z,7.80
2022-10-12T06:58:44.101Z,7.90
2022-10-12T07:01:12.569Z,7.90
2022-10-12T07:03:40.793Z,7.90
2022-10-12T07:06:11.712Z,7.90
2022-10-12T07:08:41.275Z,7.90
2022-10-12T07:11:10.124Z,8.00
2022-10-12T07:13:38.489Z,8.10
2022-10-12T07:16:07.062Z,8.10
2022-10-12T07:18:35.545Z,8.10
2022-10-12T07:21:03.772Z,8.20
2022-10-12T07:23:34.333Z,8.30
2022-10-12T07:26:02.563Z,8.30
2022-10-12T07:28:30.846Z,8.30
2022-10-12T07:31:01.962Z,8.50
2022-10-12T07:33:32.561Z,8.50
2022-10-12T07:36:21.252Z,8.60
2022-10-12T07:38:51.162Z,8.70
2022-10-12T07:41:19.723Z,8.70
2022-10-12T07:43:48.581Z,8.80
2022-10-12T07:46:16.871Z,8.80
2022-10-12T07:48:50.040Z,8.90
2022-10-12T07:51:19.285Z,9.10
2022-10-12T07:53:47.655Z,9.20
2022-10-12T07:56:17.835Z,9.20
2022-10-12T07:58:49.765Z,9.20
2022-10-12T08:01:18.504Z,9.40
2022-10-12T08:03:46.862Z,9.50
2022-10-12T08:06:16.064Z,9.60
2022-10-12T08:08:44.952Z,9.70
2022-10-12T08:11:13.291Z,9.90
2022-10-12T08:13:43.021Z,10.00
2022-10-12T08:16:12.181Z,10.20
2022-10-12T08:18:40.432Z,10.30
2022-10-12T08:21:12.190Z,10.50
2022-10-12T08:23:40.768Z,10.60
2022-10-12T08:26:09.432Z,10.70
2022-10-12T08:28:37.967Z,10.90
2022-10-12T08:31:11.711Z,11.00
2022-10-12T08:33:40.134Z,11.00
2022-10-12T08:36:08.970Z,11.10
2022-10-12T08:38:39.047Z,11.20
2022-10-12T08:41:22.402Z,11.30
2022-10-12T08:43:58.312Z,11.40
2022-10-12T08:46:28.681Z,11.40
2022-10-12T08:49:00.022Z,11.50
2022-10-12T08:51:30.713Z,11.50
2022-10-12T08:54:01.533Z,11.60
2022-10-12T08:56:29.924Z,11.70
2022-10-12T08:58:58.423Z,11.90
2022-10-12T09:01:30.636Z,12.00
2022-10-12T09:04:06.431Z,12.00
2022-10-12T09:06:36.101Z,12.10
2022-10-12T09:09:10.232Z,12.20
2022-10-12T09:11:48.872Z,12.30
2022-10-12T09:14:19.191Z,12.40
2022-10-12T09:16:53.152Z,12.50
2022-10-12T09:19:22.623Z,12.60
2022-10-12T09:21:51.284Z,12.70
2022-10-12T09:24:20.652Z,12.80
2022-10-12T09:26:51.611Z,12.80
2022-10-12T09:29:26.872Z,12.90
2022-10-12T09:32:24.333Z,13.20
2022-10-12T09:34:52.542Z,13.10
2022-10-12T09:37:24.991Z,13.20
2022-10-12T09:39:53.781Z,13.40
2022-10-12T09:42:22.093Z,13.40
2022-10-12T09:44:50.891Z,13.40
2022-10-12T09:47:28.402Z,13.40
2022-10-12T09:49:58.984Z,13.50
2022-10-12T09:52:29.542Z,13.50
2022-10-12T09:55:02.373Z,13.50
2022-10-12T09:57:35.031Z,13.60
2022-10-12T10:00:06.541Z,13.70
2022-10-12T10:02:48.144Z,13.80
2022-10-12T10:05:24.149Z,14.00
2022-10-12T10:07:52.414Z,14.00
2022-10-12T10:10:28.472Z,14.00
2022-10-12T10:12:59.161Z,13.90
2022-10-12T10:15:28.787Z,14.00
2022-10-12T10:18:00.734Z,14.10
2022-10-12T10:20:31.762Z,14.20
2022-10-12T10:23:00.502Z,14.40
2022-10-12T10:25:28.906Z,14.60
2022-10-12T10:28:14.068Z,14.60
2022-10-12T10:30:42.925Z,14.60
2022-10-12T10:33:17.872Z,14.60
2022-10-12T10:35:55.842Z,14.70
2022-10-12T10:38:24.052Z,14.90
2022-10-12T10:40:53.052Z,14.90
2022-10-12T10:43:22.651Z,14.80
2022-10-12T10:45:51.841Z,14.80
2022-10-12T10:48:22.701Z,14.70
2022-10-12T10:50:56.657Z,14.80
2022-10-12T10:53:26.161Z,14.90
2022-10-12T10:55:56.002Z,14.90
2022-10-12T10:58:27.652Z,14.80
2022-10-12T11:00:58.352Z,14.80
2022-10-12T11:03:31.053Z,14.80
2022-10-12T11:06:03.523Z,14.90
2022-10-12T11:08:32.497Z,15.00
2022-10-12T11:11:02.632Z,15.00
2022-10-12T11:13:34.072Z,15.00
2022-10-12T11:16:05.887Z,15.00
2022-10-12T11:18:39.382Z,14.90
2022-10-12T11:21:10.022Z,15.00
2022-10-12T11:23:41.923Z,15.10
2022-10-12T11:26:13.682Z,15.30
2022-10-12T11:28:42.112Z,15.40
2022-10-12T11:31:15.962Z,15.40
2022-10-12T11:33:46.293Z,15.40
2022-10-12T11:36:16.287Z,15.40
2022-10-12T11:38:46.343Z,15.60
2022-10-12T11:41:34.814Z,15.60
2022-10-12T11:44:06.497Z,15.70
2022-10-12T11:46:36.427Z,15.60
2022-10-12T11:49:09.622Z,15.70
2022-10-12T11:51:37.873Z,15.60
2022-10-12T11:54:09.634Z,15.60
2022-10-12T11:56:40.997Z,15.70
2022-10-12T11:59:15.474Z,15.70
2022-10-12T12:01:54.342Z,15.80
2022-10-12T12:04:41.776Z,15.80
2022-10-12T12:07:35.402Z,15.90
2022-10-12T12:10:23.732Z,16.00
2022-10-12T12:13:08.292Z,16.00
2022-10-12T12:15:36.604Z,16.10
2022-10-12T12:18:06.088Z,16.20
2022-10-12T12:20:55.234Z,16.20
2022-10-12T12:23:26.532Z,16.20
2022-10-12T12:26:06.067Z,16.10
2022-10-12T12:28:34.829Z,16.20
2022-10-12T12:31:04.153Z,16.20
2022-10-12T12:33:33.493Z,16.30
2022-10-12T12:36:03.169Z,16.40
2022-10-12T12:38:34.673Z,16.50
2022-10-12T12:41:10.593Z,16.50
2022-10-12T12:43:53.694Z,16.60
2022-10-12T12:46:22.343Z,16.50
2022-10-12T12:48:57.913Z,16.50
2022-10-12T12:51:27.612Z,16.50
2022-10-12T12:54:00.410Z,16.60
2022-10-12T12:56:34.642Z,16.60
2022-10-12T12:59:13.664Z,16.60
2022-10-12T13:01:50.368Z,16.70
2022-10-12T13:04:33.444Z,16.70
2022-10-12T13:07:22.284Z,16.70
2022-10-12T13:09:58.697Z,16.70
2022-10-12T13:12:43.013Z,16.60
2022-10-12T13:15:18.693Z,16.70
2022-10-12T13:18:23.076Z,16.70
2022-10-12T13:20:59.426Z,16.70
2022-10-12T13:23:28.502Z,16.70
2022-10-12T13:26:00.034Z,16.60
2022-10-12T13:28:29.573Z,16.60
2022-10-12T13:31:00.442Z,16.60
2022-10-12T13:33:32.421Z,16.70
2022-10-12T13:36:02.873Z,16.70
2022-10-12T13:38:31.825Z,16.80
2022-10-12T13:41:04.184Z,16.60
2022-10-12T13:43:45.265Z,16.60
2022-10-12T13:46:14.483Z,16.50
2022-10-12T13:48:59.838Z,16.50
2022-10-12T13:51:30.103Z,16.50
2022-10-12T13:53:58.804Z,16.50
2022-10-12T13:56:29.582Z,16.50
2022-10-12T13:58:58.660Z,16.60
2022-10-12T14:01:27.019Z,16.60
2022-10-12T14:04:03.041Z,16.60
2022-10-12T14:06:32.445Z,16.60
2022-10-12T14:09:03.494Z,16.70
2022-10-12T14:11:33.652Z,16.60
2022-10-12T14:14:02.526Z,16.60
2022-10-12T14:16:30.904Z,16.60
2022-10-12T14:19:18.685Z,16.60
2022-10-12T14:21:48.365Z,16.50
2022-10-12T14:24:18.673Z,16.50
2022-10-12T14:26:53.832Z,16.50
2022-10-12T14:29:34.523Z,16.50
2022-10-12T14:32:03.972Z,16.50
2022-10-12T14:34:36.671Z,16.60
2022-10-12T14:37:05.877Z,16.50
2022-10-12T14:39:34.262Z,16.50
2022-10-12T14:42:05.024Z,16.40
2022-10-12T14:44:43.474Z,16.40
2022-10-12T14:47:16.834Z,16.40
2022-10-12T14:49:45.985Z,16.40
2022-10-12T14:52:21.384Z,16.40
2022-10-12T14:54:53.297Z,16.20
2022-10-12T14:57:23.780Z,16.30
2022-10-12T14:59:52.072Z,16.30
2022-10-12T15:02:20.905Z,16.40
2022-10-12T15:04:49.519Z,16.30
2022-10-12T15:07:19.185Z,16.30
2022-10-12T15:09:48.434Z,16.20
2022-10-12T15:12:17.468Z,16.20
2022-10-12T15:14:47.524Z,16.20
2022-10-12T15:17:16.471Z,16.20
2022-10-12T15:19:45.272Z,16.20
2022-10-12T15:22:15.686Z,16.10
2022-10-12T15:24:43.955Z,16.20
2022-10-12T15:27:12.383Z,16.10
2022-10-12T15:29:41.126Z,16.00
2022-10-12T15:32:11.473Z,15.90
2022-10-12T15:34:40.063Z,15.80
2022-10-12T15:37:09.405Z,15.80
2022-10-12T15:39:37.826Z,15.80
2022-10-12T15:42:06.213Z,15.80
2022-10-12T15:44:40.131Z,15.70
2022-10-12T15:47:10.081Z,15.70
2022-10-12T15:49:40.133Z,15.70
2022-10-12T15:52:11.062Z,15.60
2022-10-12T15:54:39.393Z,15.60
2022-10-12T15:57:08.323Z,15.60
2022-10-12T15:59:36.623Z,15.50
2022-10-12T16:02:04.982Z,15.50
2022-10-12T16:04:33.275Z,15.50
2022-10-12T16:07:02.983Z,15.40
2022-10-12T16:09:31.333Z,15.40
2022-10-12T16:11:59.881Z,15.30
2022-10-12T16:14:28.303Z,15.30
2022-10-12T16:16:56.573Z,15.20
2022-10-12T16:19:25.019Z,15.10
2022-10-12T16:21:53.420Z,15.10
2022-10-12T16:24:23.216Z,15.00
2022-10-12T16:26:51.586Z,14.90
2022-10-12T16:29:19.905Z,14.80
2022-10-12T16:31:48.206Z,14.70
2022-10-12T16:34:16.905Z,14.70
2022-10-12T16:36:45.256Z,14.60
2022-10-12T16:39:13.592Z,14.60
2022-10-12T16:41:43.292Z,14.50
2022-10-12T16:44:11.526Z,14.50
2022-10-12T16:46:39.932Z,14.50
2022-10-12T16:49:08.303Z,14.40
2022-10-12T16:51:36.605Z,14.40
2022-10-12T16:54:04.975Z,14.20
2022-10-12T16:56:37.173Z,14.20
2022-10-12T16:59:09.044Z,14.10
2022-10-12T17:01:37.323Z,14.10
2022-10-12T17:04:05.633Z,14.10
2022-10-12T17:06:33.872Z,13.90
2022-10-12T17:09:02.214Z,13.80
2022-10-12T17:11:30.594Z,13.80
2022-10-12T17:13:58.965Z,13.80
2022-10-12T17:16:58.048Z,13.80
2022-10-12T17:19:44.332Z,13.70
2022-10-12T17:22:14.296Z,13.80
2022-10-12T17:24:43.863Z,13.90
2022-10-12T17:27:13.340Z,13.70
2022-10-12T17:29:41.872Z,13.70
2022-10-12T17:32:12.283Z,13.70
2022-10-12T17:34:41.435Z,13.70
2022-10-12T17:37:12.143Z,13.70
2022-10-12T17:39:40.976Z,13.60
2022-10-12T17:42:09.314Z,13.60
2022-10-12T17:44:37.659Z,13.60
2022-10-12T17:47:05.895Z,13.50
2022-10-12T17:49:35.563Z,13.50
2022-10-12T17:52:03.795Z,13.40
2022-10-12T17:54:33.053Z,13.40
2022-10-12T17:57:01.283Z,13.40
2022-10-12T17:59:29.514Z,13.40
2022-10-12T18:01:57.792Z,13.30
2022-10-12T18:04:26.906Z,13.30
2022-10-12T18:06:56.644Z,13.20
2022-10-12T18:09:24.942Z,13.10
2022-10-12T18:11:54.552Z,13.10
2022-10-12T18:14:22.874Z,13.10
2022-10-12T18:16:51.152Z,13.10
2022-10-12T18:19:19.528Z,13.00
2022-10-12T18:21:48.255Z,13.00
2022-10-12T18:24:17.987Z,12.90
2022-10-12T18:26:47.488Z,12.90
2022-10-12T18:29:15.914Z,12.90
2022-10-12T18:31:44.187Z,12.80
2022-10-12T18:34:12.403Z,12.80
2022-10-12T18:36:42.962Z,12.80
2022-10-12T18:39:11.303Z,12.80
2022-10-12T18:41:41.014Z,12.70
2022-10-12T18:44:09.574Z,12.70
2022-10-12T18:46:38.083Z,12.70
2022-10-12T18:49:08.646Z,12.70
2022-10-12T18:51:37.882Z,12.60
2022-10-12T18:54:06.975Z,12.60
2022-10-12T18:56:36.403Z,12.60
2022-10-12T18:59:06.702Z,12.60
2022-10-12T19:01:35.246Z,12.60
2022-10-12T19:04:04.182Z,12.50
2022-10-12T19:06:33.951Z,12.50
2022-10-12T19:09:02.658Z,12.50
2022-10-12T19:11:31.290Z,12.50
2022-10-12T19:14:00.710Z,12.40
2022-10-12T19:16:30.776Z,12.50
2022-10-12T19:18:59.574Z,12.40
2022-10-12T19:21:28.241Z,12.40
2022-10-12T19:23:56.616Z,12.30
2022-10-12T19:26:26.902Z,12.30
2022-10-12T19:28:56.574Z,12.30
2022-10-12T19:31:25.402Z,12.30
2022-10-12T19:33:57.413Z,12.20
2022-10-12T19:36:25.773Z,12.20
2022-10-12T19:38:56.173Z,12.20
2022-10-12T19:41:24.494Z,12.20
2022-10-12T19:43:53.375Z,12.10
2022-10-12T19:46:21.963Z,12.10
2022-10-12T19:48:51.404Z,12.10
2022-10-12T19:51:22.268Z,12.10
2022-10-12T19:53:53.987Z,12.10
2022-10-12T19:56:22.302Z,12.10
2022-10-12T19:58:51.617Z,12.00
2022-10-12T20:01:21.024Z,12.00
2022-10-12T20:03:50.662Z,11.90
2022-10-12T20:06:20.737Z,11.90
2022-10-12T20:08:49.294Z,11.90
2022-10-12T20:11:22.531Z,11.90
2022-10-12T20:13:52.985Z,11.80
2022-10-12T20:16:21.718Z,11.80
2022-10-12T20:18:50.403Z,11.80
2022-10-12T20:21:20.394Z,11.80
2022-10-12T20:23:50.751Z,11.80
2022-10-12T20:26:20.454Z,11.80
2022-10-12T20:28:49.154Z,11.80
2022-10-12T20:31:19.463Z,11.80
2022-10-12T20:33:50.868Z,11.80
2022-10-12T20:36:21.383Z,11.80
2022-10-12T20:38:51.303Z,11.80
2022-10-12T20:41:21.712Z,11.80
2022-10-12T20:43:50.363Z,11.70
2022-10-12T20:46:20.054Z,11.70
2022-10-12T20:48:51.662Z,11.70
2022-10-12T20:51:24.513Z,11.70
2022-10-12T20:53:54.413Z,11.60
2022-10-12T20:56:22.676Z,11.60
2022-10-12T20:58:50.992Z,11.60
2022-10-12T21:01:19.247Z,11.60
2022-10-12T21:03:47.494Z,11.50
2022-10-12T21:06:17.472Z,11.50
2022-10-12T21:08:49.903Z,11.50
2022-10-12T21:11:21.263Z,11.50
2022-10-12T21:13:49.542Z,11.50
2022-10-12T21:16:18.182Z,11.50
2022-10-12T21:18:46.443Z,11.50
2022-10-12T21:21:16.264Z,11.40
2022-10-12T21:23:45.174Z,11.50
2022-10-12T21:26:14.004Z,11.40
2022-10-12T21:28:44.031Z,11.40
2022-10-12T21:31:12.574Z,11.30
2022-10-12T21:33:41.182Z,11.30
2022-10-12T21:36:09.983Z,11.20
2022-10-12T21:38:38.242Z,11.20
2022-10-12T21:41:07.013Z,11.10
2022-10-12T21:43:35.223Z,11.10
2022-10-12T21:46:05.610Z,11.00
2022-10-12T21:48:34.534Z,11.00
2022-10-12T21:51:03.369Z,11.00
2022-10-12T21:53:31.925Z,11.00
2022-10-12T21:56:00.205Z,11.00
2022-10-12T21:58:28.423Z,11.00
2022-10-12T22:01:05.981Z,11.00
2022-10-12T22:03:34.362Z,10.90
2022-10-12T22:06:02.842Z,10.90
2022-10-12T22:08:31.194Z,10.90
2022-10-12T22:11:05.080Z,10.90
2022-10-12T22:13:33.358Z,10.90
2022-10-12T22:16:02.098Z,10.80
2022-10-12T22:18:31.767Z,10.80
2022-10-12T22:21:03.796Z,10.80
2022-10-12T22:23:32.487Z,10.80
2022-10-12T22:26:02.316Z,10.80
2022-10-12T22:28:31.192Z,10.80
2022-10-12T22:30:59.914Z,10.70
2022-10-12T22:33:28.326Z,10.70
2022-10-12T22:35:58.996Z,10.70
2022-10-12T22:38:27.848Z,10.70
2022-10-12T22:40:57.695Z,10.60
2022-10-12T22:43:26.277Z,10.60
2022-10-12T22:45:54.805Z,10.60
2022-10-12T22:48:23.565Z,10.60
2022-10-12T22:50:52.767Z,10.50
2022-10-12T22:53:23.355Z,10.50
2022-10-12T22:55:57.226Z,10.50
2022-10-12T22:58:25.926Z,10.50
2022-10-12T23:00:54.838Z,10.50
2022-10-12T23:03:23.226Z,10.50
2022-10-12T23:05:51.964Z,10.40
2022-10-12T23:08:20.260Z,10.40
2022-10-12T23:10:50.404Z,10.30
2022-10-12T23:13:18.763Z,10.30
2022-10-12T23:15:46.993Z,10.30
2022-10-12T23:18:16.344Z,10.30
2022-10-12T23:20:44.804Z,10.30
2022-10-12T23:23:13.085Z,10.30
2022-10-12T23:25:41.505Z,10.30
2022-10-12T23:28:11.393Z,10.30
2022-10-12T23:30:39.751Z,10.30
2022-10-12T23:33:08.874Z,10.30
2022-10-12T23:35:37.324Z,10.20
2022-10-12T23:38:05.817Z,10.30
2022-10-12T23:40:35.314Z,10.30
2022-10-12T23:43:03.833Z,10.30
2022-10-12T23:45:34.704Z,10.30
2022-10-12T23:48:03.586Z,10.30
2022-10-12T23:50:32.588Z,10.30
2022-10-12T23:53:01.234Z,10.30
2022-10-12T23:55:29.884Z,10.30
2022-10-12T23:57:58.315Z,10.30
